sensor_id;sensor_type;location;lat;lon;timestamp;pressure;altitude;pressure_sealevel;temperature;humidity
72285;BME280;60220;53.552;10.092;2023-04-02T00:02:32;101334.56;;;2.38;68.65
72285;BME280;60220;53.552;10.092;2023-04-02T00:05:28;101341.66;;;2.44;68.54
72285;BME280;60220;53.552;10.092;2023-04-02T00:08:00;101337.66;;;2.27;68.73
72285;BME280;60220;53.552;10.092;2023-04-02T00:10:33;101340.19;;;2.24;68.96
72285;BME280;60220;53.552;10.092;2023-04-02T00:13:04;101347.28;;;2.31;68.53
72285;BME280;60220;53.552;10.092;2023-04-02T00:15:32;101343.66;;;2.54;67.79
72285;BME280;60220;53.552;10.092;2023-04-02T00:18:03;101351.03;;;2.40;68.07
72285;BME280;60220;53.552;10.092;2023-04-02T00:20:36;101354.34;;;2.36;67.24
72285;BME280;60220;53.552;10.092;2023-04-02T00:23:09;101366.38;;;2.34;68.15
72285;BME280;60220;53.552;10.092;2023-04-02T00:25:41;101365.22;;;2.53;68.48
72285;BME280;60220;53.552;10.092;2023-04-02T00:28:13;101370.09;;;2.72;68.06
72285;BME280;60220;53.552;10.092;2023-04-02T00:30:47;101378.31;;;2.57;68.54
72285;BME280;60220;53.552;10.092;2023-04-02T00:33:17;101375.13;;;2.38;68.74
72285;BME280;60220;53.552;10.092;2023-04-02T00:35:47;101377.63;;;2.35;67.91
72285;BME280;60220;53.552;10.092;2023-04-02T00:38:19;101381.88;;;2.61;69.24
72285;BME280;60220;53.552;10.092;2023-04-02T00:40:46;101380.88;;;2.28;68.58
72285;BME280;60220;53.552;10.092;2023-04-02T00:43:15;101395.94;;;2.41;68.76
72285;BME280;60220;53.552;10.092;2023-04-02T00:45:46;101398.16;;;2.57;68.55
72285;BME280;60220;53.552;10.092;2023-04-02T00:48:31;101401.84;;;2.65;67.87
72285;BME280;60220;53.552;10.092;2023-04-02T00:51:11;101403.78;;;2.15;69.02
72285;BME280;60220;53.552;10.092;2023-04-02T00:53:41;101405.44;;;2.40;68.93
72285;BME280;60220;53.552;10.092;2023-04-02T00:56:14;101404.00;;;2.22;68.83
72285;BME280;60220;53.552;10.092;2023-04-02T00:58:43;101417.41;;;2.65;69.24
72285;BME280;60220;53.552;10.092;2023-04-02T01:01:16;101414.81;;;2.37;67.74
72285;BME280;60220;53.552;10.092;2023-04-02T01:03:52;101421.63;;;2.62;68.16
72285;BME280;60220;53.552;10.092;2023-04-02T01:06:24;101427.22;;;2.19;68.74
72285;BME280;60220;53.552;10.092;2023-04-02T01:09:14;101435.47;;;2.62;68.45
72285;BME280;60220;53.552;10.092;2023-04-02T01:11:54;101443.19;;;2.32;68.72
72285;BME280;60220;53.552;10.092;2023-04-02T01:14:36;101446.47;;;2.55;68.68
72285;BME280;60220;53.552;10.092;2023-04-02T01:17:16;101448.31;;;2.87;67.87
72285;BME280;60220;53.552;10.092;2023-04-02T01:19:57;101448.97;;;2.80;67.32
72285;BME280;60220;53.552;10.092;2023-04-02T01:22:35;101450.38;;;2.99;67.52
72285;BME280;60220;53.552;10.092;2023-04-02T01:25:06;101452.91;;;2.68;67.37
72285;BME280;60220;53.552;10.092;2023-04-02T01:27:38;101461.75;;;2.46;67.96
72285;BME280;60220;53.552;10.092;2023-04-02T01:30:11;101459.69;;;2.36;68.83
72285;BME280;60220;53.552;10.092;2023-04-02T01:32:39;101474.63;;;2.43;68.94
72285;BME280;60220;53.552;10.092;2023-04-02T01:35:07;101469.97;;;2.89;67.22
72285;BME280;60220;53.552;10.092;2023-04-02T01:37:38;101479.44;;;2.32;68.01
72285;BME280;60220;53.552;10.092;2023-04-02T01:40:19;101479.50;;;2.34;68.31
72285;BME280;60220;53.552;10.092;2023-04-02T01:42:55;101485.38;;;2.28;68.70
72285;BME280;60220;53.552;10.092;2023-04-02T01:45:27;101488.50;;;2.20;69.06
72285;BME280;60220;53.552;10.092;2023-04-02T01:47:55;101496.50;;;2.00;69.18
72285;BME280;60220;53.552;10.092;2023-04-02T01:50:26;101492.44;;;2.07;68.93
72285;BME280;60220;53.552;10.092;2023-04-02T01:52:58;101506.13;;;2.85;67.26
72285;BME280;60220;53.552;10.092;2023-04-02T01:55:31;101501.91;;;2.60;66.81
72285;BME280;60220;53.552;10.092;2023-04-02T01:58:00;101497.16;;;2.19;66.79
72285;BME280;60220;53.552;10.092;2023-04-02T02:00:30;101497.13;;;2.72;66.68
72285;BME280;60220;53.552;10.092;2023-04-02T02:03:00;101503.47;;;2.82;65.69
72285;BME280;60220;53.552;10.092;2023-04-02T02:05:28;101511.22;;;2.27;65.49
72285;BME280;60220;53.552;10.092;2023-04-02T02:07:55;101506.34;;;2.64;64.97
72285;BME280;60220;53.552;10.092;2023-04-02T02:10:33;101517.31;;;2.55;64.79
72285;BME280;60220;53.552;10.092;2023-04-02T02:13:00;101522.25;;;2.75;64.71
72285;BME280;60220;53.552;10.092;2023-04-02T02:15:27;101524.41;;;2.61;65.04
72285;BME280;60220;53.552;10.092;2023-04-02T02:17:57;101527.25;;;2.69;64.24
72285;BME280;60220;53.552;10.092;2023-04-02T02:20:26;101535.94;;;2.97;64.08
72285;BME280;60220;53.552;10.092;2023-04-02T02:22:56;101528.50;;;2.81;64.27
72285;BME280;60220;53.552;10.092;2023-04-02T02:25:26;101536.06;;;3.02;64.24
72285;BME280;60220;53.552;10.092;2023-04-02T02:27:58;101538.97;;;2.84;63.89
72285;BME280;60220;53.552;10.092;2023-04-02T02:30:29;101544.81;;;3.06;64.16
72285;BME280;60220;53.552;10.092;2023-04-02T02:33:02;101540.16;;;2.95;62.64
72285;BME280;60220;53.552;10.092;2023-04-02T02:35:35;101547.91;;;2.39;64.06
72285;BME280;60220;53.552;10.092;2023-04-02T02:38:22;101556.09;;;2.79;64.21
72285;BME280;60220;53.552;10.092;2023-04-02T02:40:53;101564.91;;;3.13;63.29
72285;BME280;60220;53.552;10.092;2023-04-02T02:43:22;101563.78;;;3.04;62.95
72285;BME280;60220;53.552;10.092;2023-04-02T02:45:50;101565.09;;;2.90;63.93
72285;BME280;60220;53.552;10.092;2023-04-02T02:48:22;101572.34;;;3.30;62.62
72285;BME280;60220;53.552;10.092;2023-04-02T02:50:50;101575.09;;;3.07;63.16
72285;BME280;60220;53.552;10.092;2023-04-02T02:53:20;101581.94;;;3.04;63.34
72285;BME280;60220;53.552;10.092;2023-04-02T02:55:49;101586.44;;;3.10;62.80
72285;BME280;60220;53.552;10.092;2023-04-02T02:58:20;101592.97;;;2.71;62.90
72285;BME280;60220;53.552;10.092;2023-04-02T03:00:50;101597.41;;;3.30;63.29
72285;BME280;60220;53.552;10.092;2023-04-02T03:03:23;101606.38;;;3.11;64.44
72285;BME280;60220;53.552;10.092;2023-04-02T03:05:52;101603.94;;;2.89;64.04
72285;BME280;60220;53.552;10.092;2023-04-02T03:08:35;101610.47;;;3.04;64.40
72285;BME280;60220;53.552;10.092;2023-04-02T03:11:09;101620.84;;;3.04;64.42
72285;BME280;60220;53.552;10.092;2023-04-02T03:13:39;101613.03;;;2.76;64.08
72285;BME280;60220;53.552;10.092;2023-04-02T03:16:15;101623.00;;;2.64;64.56
72285;BME280;60220;53.552;10.092;2023-04-02T03:18:51;101623.09;;;2.67;64.94
72285;BME280;60220;53.552;10.092;2023-04-02T03:21:25;101628.28;;;3.21;64.13
72285;BME280;60220;53.552;10.092;2023-04-02T03:23:58;101634.56;;;3.00;63.95
72285;BME280;60220;53.552;10.092;2023-04-02T03:26:31;101638.38;;;3.12;63.90
72285;BME280;60220;53.552;10.092;2023-04-02T03:29:02;101643.84;;;3.21;64.23
72285;BME280;60220;53.552;10.092;2023-04-02T03:31:36;101651.16;;;3.34;62.95
72285;BME280;60220;53.552;10.092;2023-04-02T03:34:10;101659.59;;;3.27;63.32
72285;BME280;60220;53.552;10.092;2023-04-02T03:36:42;101660.00;;;3.12;63.35
72285;BME280;60220;53.552;10.092;2023-04-02T03:39:19;101658.69;;;2.98;63.90
72285;BME280;60220;53.552;10.092;2023-04-02T03:41:54;101671.31;;;2.62;65.58
72285;BME280;60220;53.552;10.092;2023-04-02T03:44:27;101675.97;;;2.97;64.93
72285;BME280;60220;53.552;10.092;2023-04-02T03:47:03;101681.13;;;3.24;65.05
72285;BME280;60220;53.552;10.092;2023-04-02T03:49:40;101685.00;;;2.83;64.11
72285;BME280;60220;53.552;10.092;2023-04-02T03:52:12;101683.84;;;2.75;64.76
72285;BME280;60220;53.552;10.092;2023-04-02T03:54:39;101691.13;;;3.12;64.68
72285;BME280;60220;53.552;10.092;2023-04-02T03:57:11;101693.59;;;3.08;64.55
72285;BME280;60220;53.552;10.092;2023-04-02T03:59:47;101697.88;;;3.34;64.37
72285;BME280;60220;53.552;10.092;2023-04-02T04:02:18;101698.41;;;2.97;63.92
72285;BME280;60220;53.552;10.092;2023-04-02T04:04:52;101704.81;;;2.81;64.63
72285;BME280;60220;53.552;10.092;2023-04-02T04:07:28;101711.97;;;3.15;64.09
72285;BME280;60220;53.552;10.092;2023-04-02T04:09:57;101711.31;;;3.49;64.12
72285;BME280;60220;53.552;10.092;2023-04-02T04:12:29;101711.63;;;2.79;65.05
72285;BME280;60220;53.552;10.092;2023-04-02T04:14:59;101724.34;;;3.51;64.67
72285;BME280;60220;53.552;10.092;2023-04-02T04:17:33;101724.81;;;3.11;64.48
72285;BME280;60220;53.552;10.092;2023-04-02T04:20:14;101726.78;;;2.92;64.82
72285;BME280;60220;53.552;10.092;2023-04-02T04:22:49;101742.19;;;3.13;63.76
72285;BME280;60220;53.552;10.092;2023-04-02T04:25:23;101736.66;;;3.02;64.46
72285;BME280;60220;53.552;10.092;2023-04-02T04:28:00;101741.16;;;2.57;65.09
72285;BME280;60220;53.552;10.092;2023-04-02T04:30:43;101739.97;;;2.49;66.21
72285;BME280;60220;53.552;10.092;2023-04-02T04:33:17;101749.38;;;2.71;65.46
72285;BME280;60220;53.552;10.092;2023-04-02T04:35:51;101759.34;;;2.59;65.24
72285;BME280;60220;53.552;10.092;2023-04-02T04:38:24;101750.81;;;2.87;65.01
72285;BME280;60220;53.552;10.092;2023-04-02T04:41:00;101765.72;;;2.69;65.76
72285;BME280;60220;53.552;10.092;2023-04-02T04:43:32;101761.41;;;3.20;64.92
72285;BME280;60220;53.552;10.092;2023-04-02T04:46:05;101766.59;;;2.94;64.16
72285;BME280;60220;53.552;10.092;2023-04-02T04:48:36;101776.88;;;2.66;64.58
72285;BME280;60220;53.552;10.092;2023-04-02T04:51:07;101779.69;;;2.97;65.06
72285;BME280;60220;53.552;10.092;2023-04-02T04:53:45;101792.09;;;2.57;65.44
72285;BME280;60220;53.552;10.092;2023-04-02T04:56:16;101789.66;;;2.38;65.56
72285;BME280;60220;53.552;10.092;2023-04-02T04:58:47;101792.59;;;2.47;66.34
72285;BME280;60220;53.552;10.092;2023-04-02T05:01:22;101800.56;;;2.77;65.38
72285;BME280;60220;53.552;10.092;2023-04-02T05:03:55;101803.09;;;2.75;65.10
72285;BME280;60220;53.552;10.092;2023-04-02T05:06:34;101803.72;;;3.17;64.73
72285;BME280;60220;53.552;10.092;2023-04-02T05:09:10;101810.19;;;3.30;63.59
72285;BME280;60220;53.552;10.092;2023-04-02T05:11:42;101815.38;;;3.04;63.79
72285;BME280;60220;53.552;10.092;2023-04-02T05:14:19;101829.47;;;2.87;64.20
72285;BME280;60220;53.552;10.092;2023-04-02T05:16:52;101822.84;;;3.46;64.42
72285;BME280;60220;53.552;10.092;2023-04-02T05:19:27;101830.94;;;3.04;64.93
72285;BME280;60220;53.552;10.092;2023-04-02T05:22:01;101838.06;;;2.86;64.22
72285;BME280;60220;53.552;10.092;2023-04-02T05:24:38;101840.56;;;2.83;64.51
72285;BME280;60220;53.552;10.092;2023-04-02T05:27:14;101841.00;;;3.21;63.81
72285;BME280;60220;53.552;10.092;2023-04-02T05:29:46;101844.19;;;3.37;63.82
72285;BME280;60220;53.552;10.092;2023-04-02T05:32:17;101854.69;;;3.94;64.35
72285;BME280;60220;53.552;10.092;2023-04-02T05:34:50;101854.81;;;3.97;62.68
72285;BME280;60220;53.552;10.092;2023-04-02T05:37:22;101855.78;;;4.01;62.12
72285;BME280;60220;53.552;10.092;2023-04-02T05:39:52;101860.41;;;3.82;63.43
72285;BME280;60220;53.552;10.092;2023-04-02T05:42:22;101857.69;;;4.34;62.80
72285;BME280;60220;53.552;10.092;2023-04-02T05:44:57;101869.19;;;4.14;61.58
72285;BME280;60220;53.552;10.092;2023-04-02T05:47:29;101863.13;;;3.60;61.74
72285;BME280;60220;53.552;10.092;2023-04-02T05:50:15;101869.09;;;3.84;61.52
72285;BME280;60220;53.552;10.092;2023-04-02T05:52:46;101880.66;;;4.21;61.56
72285;BME280;60220;53.552;10.092;2023-04-02T05:55:27;101876.28;;;4.20;61.64
72285;BME280;60220;53.552;10.092;2023-04-02T05:58:01;101879.16;;;4.29;61.56
72285;BME280;60220;53.552;10.092;2023-04-02T06:00:45;101883.44;;;4.55;60.88
72285;BME280;60220;53.552;10.092;2023-04-02T06:03:18;101880.44;;;3.86;61.89
72285;BME280;60220;53.552;10.092;2023-04-02T06:05:50;101892.06;;;3.98;62.73
72285;BME280;60220;53.552;10.092;2023-04-02T06:08:22;101893.78;;;3.99;61.61
72285;BME280;60220;53.552;10.092;2023-04-02T06:10:53;101895.63;;;4.86;60.64
72285;BME280;60220;53.552;10.092;2023-04-02T06:13:21;101902.28;;;4.76;60.87
72285;BME280;60220;53.552;10.092;2023-04-02T06:15:48;101911.91;;;4.24;61.36
72285;BME280;60220;53.552;10.092;2023-04-02T06:18:17;101915.09;;;4.70;60.41
72285;BME280;60220;53.552;10.092;2023-04-02T06:20:47;101916.25;;;4.80;60.14
72285;BME280;60220;53.552;10.092;2023-04-02T06:23:17;101920.47;;;4.76;59.64
72285;BME280;60220;53.552;10.092;2023-04-02T06:25:48;101921.59;;;4.56;60.66
72285;BME280;60220;53.552;10.092;2023-04-02T06:28:20;101919.22;;;4.94;59.87
72285;BME280;60220;53.552;10.092;2023-04-02T06:30:51;101927.44;;;5.07;59.71
72285;BME280;60220;53.552;10.092;2023-04-02T06:33:19;101934.19;;;5.01;59.85
72285;BME280;60220;53.552;10.092;2023-04-02T06:35:49;101936.09;;;4.76;61.41
72285;BME280;60220;53.552;10.092;2023-04-02T06:38:19;101939.88;;;4.88;60.00
72285;BME280;60220;53.552;10.092;2023-04-02T06:40:52;101942.41;;;4.28;61.94
72285;BME280;60220;53.552;10.092;2023-04-02T06:43:24;101947.19;;;4.71;60.52
72285;BME280;60220;53.552;10.092;2023-04-02T06:45:58;101958.81;;;4.84;60.31
72285;BME280;60220;53.552;10.092;2023-04-02T06:48:27;101962.59;;;4.65;59.68
72285;BME280;60220;53.552;10.092;2023-04-02T06:50:58;101960.13;;;4.69;60.27
72285;BME280;60220;53.552;10.092;2023-04-02T06:53:32;101971.97;;;4.88;59.88
72285;BME280;60220;53.552;10.092;2023-04-02T06:56:03;101971.97;;;4.31;60.21
72285;BME280;60220;53.552;10.092;2023-04-02T06:58:31;101980.75;;;4.92;60.05
72285;BME280;60220;53.552;10.092;2023-04-02T07:00:58;101986.69;;;5.16;60.02
72285;BME280;60220;53.552;10.092;2023-04-02T07:03:26;101987.50;;;5.15;60.14
72285;BME280;60220;53.552;10.092;2023-04-02T07:05:56;101984.34;;;5.56;59.19
72285;BME280;60220;53.552;10.092;2023-04-02T07:08:24;101991.16;;;5.53;58.13
72285;BME280;60220;53.552;10.092;2023-04-02T07:10:51;102000.91;;;4.99;59.50
72285;BME280;60220;53.552;10.092;2023-04-02T07:13:20;102000.28;;;4.78;60.91
72285;BME280;60220;53.552;10.092;2023-04-02T07:15:50;102001.09;;;5.05;60.17
72285;BME280;60220;53.552;10.092;2023-04-02T07:18:23;102005.22;;;4.70;59.50
72285;BME280;60220;53.552;10.092;2023-04-02T07:20:51;102007.75;;;4.40;60.70
72285;BME280;60220;53.552;10.092;2023-04-02T07:23:17;102009.13;;;4.83;60.53
72285;BME280;60220;53.552;10.092;2023-04-02T07:25:45;102017.16;;;4.63;59.93
72285;BME280;60220;53.552;10.092;2023-04-02T07:28:13;102016.53;;;5.29;60.18
72285;BME280;60220;53.552;10.092;2023-04-02T07:30:43;102016.56;;;4.72;59.72
72285;BME280;60220;53.552;10.092;2023-04-02T07:33:12;102023.84;;;4.82;60.55
72285;BME280;60220;53.552;10.092;2023-04-02T07:35:39;102037.03;;;5.46;59.03
72285;BME280;60220;53.552;10.092;2023-04-02T07:38:05;102028.16;;;5.71;57.15
72285;BME280;60220;53.552;10.092;2023-04-02T07:40:35;102035.19;;;6.05;57.05
72285;BME280;60220;53.552;10.092;2023-04-02T07:43:02;102037.50;;;6.27;55.92
72285;BME280;60220;53.552;10.092;2023-04-02T07:45:29;102043.34;;;7.29;53.39
72285;BME280;60220;53.552;10.092;2023-04-02T07:47:57;102045.91;;;7.70;53.61
72285;BME280;60220;53.552;10.092;2023-04-02T07:50:26;102044.91;;;8.59;51.59
72285;BME280;60220;53.552;10.092;2023-04-02T07:52:52;102057.22;;;7.69;51.54
72285;BME280;60220;53.552;10.092;2023-04-02T07:55:19;102055.78;;;7.85;51.56
72285;BME280;60220;53.552;10.092;2023-04-02T07:57:50;102060.06;;;7.81;51.95
72285;BME280;60220;53.552;10.092;2023-04-02T08:00:18;102070.22;;;7.66;50.48
72285;BME280;60220;53.552;10.092;2023-04-02T08:02:48;102071.75;;;7.55;51.73
72285;BME280;60220;53.552;10.092;2023-04-02T08:05:16;102083.59;;;8.28;51.40
72285;BME280;60220;53.552;10.092;2023-04-02T08:07:43;102086.53;;;7.54;50.45
72285;BME280;60220;53.552;10.092;2023-04-02T08:10:10;102091.63;;;7.90;50.41
72285;BME280;60220;53.552;10.092;2023-04-02T08:12:39;102083.88;;;6.75;51.71
72285;BME280;60220;53.552;10.092;2023-04-02T08:15:12;102082.91;;;6.35;51.20
72285;BME280;60220;53.552;10.092;2023-04-02T08:17:39;102083.41;;;6.91;52.50
72285;BME280;60220;53.552;10.092;2023-04-02T08:20:13;102084.00;;;8.49;50.41
72285;BME280;60220;53.552;10.092;2023-04-02T08:22:41;102096.91;;;8.92;49.62
72285;BME280;60220;53.552;10.092;2023-04-02T08:25:08;102092.53;;;8.90;48.23
72285;BME280;60220;53.552;10.092;2023-04-02T08:27:35;102098.88;;;9.07;48.75
72285;BME280;60220;53.552;10.092;2023-04-02T08:30:03;102109.78;;;8.79;48.60
72285;BME280;60220;53.552;10.092;2023-04-02T08:32:30;102113.03;;;7.30;49.64
72285;BME280;60220;53.552;10.092;2023-04-02T08:34:57;102117.69;;;8.31;50.25
72285;BME280;60220;53.552;10.092;2023-04-02T08:37:24;102116.53;;;8.16;48.87
72285;BME280;60220;53.552;10.092;2023-04-02T08:39:52;102117.31;;;8.12;50.22
72285;BME280;60220;53.552;10.092;2023-04-02T08:42:24;102116.25;;;6.47;52.77
72285;BME280;60220;53.552;10.092;2023-04-02T08:45:02;102126.72;;;6.84;52.32
72285;BME280;60220;53.552;10.092;2023-04-02T08:47:34;102132.22;;;6.61;52.55
72285;BME280;60220;53.552;10.092;2023-04-02T08:50:06;102137.72;;;6.38;53.89
72285;BME280;60220;53.552;10.092;2023-04-02T08:52:40;102136.50;;;6.93;52.32
72285;BME280;60220;53.552;10.092;2023-04-02T08:55:17;102147.66;;;6.52;53.08
72285;BME280;60220;53.552;10.092;2023-04-02T08:57:53;102141.47;;;6.15;54.49
72285;BME280;60220;53.552;10.092;2023-04-02T09:00:29;102146.28;;;7.39;52.74
72285;BME280;60220;53.552;10.092;2023-04-02T09:03:02;102163.00;;;7.86;51.04
72285;BME280;60220;53.552;10.092;2023-04-02T09:05:33;102163.97;;;7.13;52.40
72285;BME280;60220;53.552;10.092;2023-04-02T09:08:02;102165.16;;;7.27;52.09
72285;BME280;60220;53.552;10.092;2023-04-02T09:10:36;102169.13;;;7.88;51.05
72285;BME280;60220;53.552;10.092;2023-04-02T09:13:18;102170.19;;;9.45;48.96
72285;BME280;60220;53.552;10.092;2023-04-02T09:15:53;102167.44;;;9.36;48.19
72285;BME280;60220;53.552;10.092;2023-04-02T09:18:22;102177.59;;;8.63;47.84
72285;BME280;60220;53.552;10.092;2023-04-02T09:20:49;102169.81;;;8.23;46.37
72285;BME280;60220;53.552;10.092;2023-04-02T09:23:20;102181.41;;;8.82;46.59
72285;BME280;60220;53.552;10.092;2023-04-02T09:25:50;102176.06;;;9.29;44.91
72285;BME280;60220;53.552;10.092;2023-04-02T09:28:18;102193.28;;;8.18;44.79
72285;BME280;60220;53.552;10.092;2023-04-02T09:31:04;102179.72;;;8.38;45.56
72285;BME280;60220;53.552;10.092;2023-04-02T09:33:43;102189.13;;;10.60;43.14
72285;BME280;60220;53.552;10.092;2023-04-02T09:36:24;102184.88;;;9.96;41.57
72285;BME280;60220;53.552;10.092;2023-04-02T09:38:58;102188.34;;;9.33;42.20
72285;BME280;60220;53.552;10.092;2023-04-02T09:41:28;102201.63;;;8.89;45.22
72285;BME280;60220;53.552;10.092;2023-04-02T09:44:13;102200.28;;;9.73;43.11
72285;BME280;60220;53.552;10.092;2023-04-02T09:46:53;102201.34;;;9.85;42.83
72285;BME280;60220;53.552;10.092;2023-04-02T09:49:25;102203.59;;;11.13;41.03
72285;BME280;60220;53.552;10.092;2023-04-02T09:52:19;102208.19;;;9.17;44.48
72285;BME280;60220;53.552;10.092;2023-04-02T09:54:47;102211.69;;;9.76;43.76
72285;BME280;60220;53.552;10.092;2023-04-02T09:57:31;102216.13;;;9.80;42.95
72285;BME280;60220;53.552;10.092;2023-04-02T10:00:16;102220.25;;;9.63;43.07
72285;BME280;60220;53.552;10.092;2023-04-02T10:02:45;102210.19;;;10.66;42.61
72285;BME280;60220;53.552;10.092;2023-04-02T10:05:18;102214.31;;;9.18;43.70
72285;BME280;60220;53.552;10.092;2023-04-02T10:07:48;102215.94;;;8.60;44.35
72285;BME280;60220;53.552;10.092;2023-04-02T10:10:19;102218.41;;;9.02;44.05
72285;BME280;60220;53.552;10.092;2023-04-02T10:12:52;102215.88;;;9.62;44.33
72285;BME280;60220;53.552;10.092;2023-04-02T10:15:25;102230.75;;;9.63;43.58
72285;BME280;60220;53.552;10.092;2023-04-02T10:18:00;102227.44;;;9.19;43.65
72285;BME280;60220;53.552;10.092;2023-04-02T10:20:28;102241.91;;;8.97;43.54
72285;BME280;60220;53.552;10.092;2023-04-02T10:22:57;102235.25;;;9.18;42.83
72285;BME280;60220;53.552;10.092;2023-04-02T10:25:29;102245.72;;;8.25;44.73
72285;BME280;60220;53.552;10.092;2023-04-02T10:28:04;102248.28;;;9.67;44.95
72285;BME280;60220;53.552;10.092;2023-04-02T10:30:39;102247.88;;;9.40;43.21
72285;BME280;60220;53.552;10.092;2023-04-02T10:33:14;102266.13;;;8.00;43.60
72285;BME280;60220;53.552;10.092;2023-04-02T10:35:51;102262.06;;;8.55;42.91
72285;BME280;60220;53.552;10.092;2023-04-02T10:38:28;102272.25;;;8.85;43.69
72285;BME280;60220;53.552;10.092;2023-04-02T10:40:58;102274.84;;;8.40;42.84
72285;BME280;60220;53.552;10.092;2023-04-02T10:46:35;102279.25;;;8.86;45.33
72285;BME280;60220;53.552;10.092;2023-04-02T10:49:12;102288.53;;;9.18;46.56
72285;BME280;60220;53.552;10.092;2023-04-02T10:51:47;102287.97;;;9.90;45.37
72285;BME280;60220;53.552;10.092;2023-04-02T10:54:32;102307.81;;;9.22;47.66
72285;BME280;60220;53.552;10.092;2023-04-02T10:57:05;102300.09;;;9.29;46.90
72285;BME280;60220;53.552;10.092;2023-04-02T10:59:40;102312.78;;;9.56;46.01
72285;BME280;60220;53.552;10.092;2023-04-02T11:02:26;102321.41;;;9.49;43.34
72285;BME280;60220;53.552;10.092;2023-04-02T11:04:57;102319.84;;;8.64;44.52
72285;BME280;60220;53.552;10.092;2023-04-02T11:07:27;102320.59;;;9.03;44.84
72285;BME280;60220;53.552;10.092;2023-04-02T11:09:57;102316.69;;;9.82;44.01
72285;BME280;60220;53.552;10.092;2023-04-02T11:12:38;102314.75;;;9.69;43.43
72285;BME280;60220;53.552;10.092;2023-04-02T11:15:13;102328.97;;;8.84;42.71
72285;BME280;60220;53.552;10.092;2023-04-02T11:17:43;102322.09;;;8.47;44.28
72285;BME280;60220;53.552;10.092;2023-04-02T11:20:53;102323.25;;;8.60;44.26
72285;BME280;60220;53.552;10.092;2023-04-02T11:23:27;102315.50;;;8.26;45.89
72285;BME280;60220;53.552;10.092;2023-04-02T11:29:19;102333.22;;;8.79;45.77
72285;BME280;60220;53.552;10.092;2023-04-02T11:31:47;102336.00;;;8.45;46.30
72285;BME280;60220;53.552;10.092;2023-04-02T11:37:34;102347.75;;;9.58;44.56
72285;BME280;60220;53.552;10.092;2023-04-02T11:40:02;102343.09;;;9.40;43.65
72285;BME280;60220;53.552;10.092;2023-04-02T11:42:33;102338.97;;;9.05;44.31
72285;BME280;60220;53.552;10.092;2023-04-02T11:48:27;102357.06;;;8.93;45.38
72285;BME280;60220;53.552;10.092;2023-04-02T11:50:55;102356.97;;;8.88;44.78
72285;BME280;60220;53.552;10.092;2023-04-02T11:53:27;102351.84;;;8.94;44.27
72285;BME280;60220;53.552;10.092;2023-04-02T11:56:07;102364.31;;;9.07;44.11
72285;BME280;60220;53.552;10.092;2023-04-02T11:58:50;102369.97;;;9.29;43.30
72285;BME280;60220;53.552;10.092;2023-04-02T12:01:38;102370.72;;;9.23;42.13
72285;BME280;60220;53.552;10.092;2023-04-02T12:04:26;102369.91;;;9.26;41.99
72285;BME280;60220;53.552;10.092;2023-04-02T12:07:11;102383.38;;;9.47;42.50
72285;BME280;60220;53.552;10.092;2023-04-02T12:09:46;102378.41;;;9.61;43.13
72285;BME280;60220;53.552;10.092;2023-04-02T12:12:16;102378.47;;;9.16;45.03
72285;BME280;60220;53.552;10.092;2023-04-02T12:14:46;102364.22;;;8.20;43.71
72285;BME280;60220;53.552;10.092;2023-04-02T12:17:17;102396.72;;;9.59;43.94
72285;BME280;60220;53.552;10.092;2023-04-02T12:19:52;102392.63;;;9.75;44.33
72285;BME280;60220;53.552;10.092;2023-04-02T12:22:22;102392.47;;;9.18;44.35
72285;BME280;60220;53.552;10.092;2023-04-02T12:24:52;102386.88;;;8.99;42.65
72285;BME280;60220;53.552;10.092;2023-04-02T12:27:23;102404.25;;;8.16;44.50
72285;BME280;60220;53.552;10.092;2023-04-02T12:29:52;102403.09;;;9.27;43.60
72285;BME280;60220;53.552;10.092;2023-04-02T12:32:23;102402.97;;;9.66;43.41
72285;BME280;60220;53.552;10.092;2023-04-02T12:34:52;102408.47;;;9.81;42.57
72285;BME280;60220;53.552;10.092;2023-04-02T12:37:23;102405.09;;;8.93;43.81
72285;BME280;60220;53.552;10.092;2023-04-02T12:39:52;102412.75;;;9.28;44.48
72285;BME280;60220;53.552;10.092;2023-04-02T12:42:25;102415.22;;;9.22;43.35
72285;BME280;60220;53.552;10.092;2023-04-02T12:44:52;102409.97;;;8.77;45.13
72285;BME280;60220;53.552;10.092;2023-04-02T12:47:19;102399.84;;;8.53;46.30
72285;BME280;60220;53.552;10.092;2023-04-02T12:49:46;102409.91;;;9.16;44.42
72285;BME280;60220;53.552;10.092;2023-04-02T12:52:15;102399.44;;;8.74;45.74
72285;BME280;60220;53.552;10.092;2023-04-02T12:54:46;102394.06;;;8.66;46.23
72285;BME280;60220;53.552;10.092;2023-04-02T13:02:48;102415.56;;;8.53;46.16
72285;BME280;60220;53.552;10.092;2023-04-02T13:05:31;102412.28;;;9.50;46.46
72285;BME280;60220;53.552;10.092;2023-04-02T13:07:58;102411.72;;;9.20;44.61
72285;BME280;60220;53.552;10.092;2023-04-02T13:10:26;102424.91;;;8.82;45.81
72285;BME280;60220;53.552;10.092;2023-04-02T13:12:54;102416.69;;;9.06;45.93
72285;BME280;60220;53.552;10.092;2023-04-02T13:15:23;102429.13;;;9.18;45.19
72285;BME280;60220;53.552;10.092;2023-04-02T13:18:05;102434.13;;;8.28;46.34
72285;BME280;60220;53.552;10.092;2023-04-02T13:20:33;102430.97;;;9.22;45.71
72285;BME280;60220;53.552;10.092;2023-04-02T13:23:28;102438.06;;;9.26;45.69
72285;BME280;60220;53.552;10.092;2023-04-02T13:25:59;102428.34;;;9.22;46.28
72285;BME280;60220;53.552;10.092;2023-04-02T13:28:26;102433.97;;;8.96;46.70
72285;BME280;60220;53.552;10.092;2023-04-02T13:30:53;102442.13;;;9.58;46.40
72285;BME280;60220;53.552;10.092;2023-04-02T13:33:19;102439.06;;;8.90;47.43
72285;BME280;60220;53.552;10.092;2023-04-02T13:35:46;102445.31;;;8.97;46.83
72285;BME280;60220;53.552;10.092;2023-04-02T13:38:13;102437.03;;;8.77;46.46